Time;durP1;ratioP1;P1;durP2;ratioP2;P2;SDS_P1;SDS_P2;PMS_P1;PMS_P2;Temp;Humidity;BMP_temperature;BMP_pressure;BME280_temperature;BME280_humidity;BME280_pressure;Samples;Min_cycle;Max_cycle;Signal;HPM_P1;HPM_P2
2023/01/25 00:04:20;;;;;;;36.60;23.20;;;;;;;1.63;90.74;102635.42;214483;1266;60544;-73
2023/01/25 00:09:14;;;;;;;34.40;21.80;;;;;;;1.62;90.67;102634.81;214522;1262;71440;-73
2023/01/25 00:14:07;;;;;;;39.00;23.10;;;;;;;1.59;90.94;102634.28;214570;1265;61206;-73
2023/01/25 00:19:00;;;;;;;37.60;26.90;;;;;;;1.61;91.03;102639.17;214532;1265;67246;-73
2023/01/25 00:23:53;;;;;;;35.70;23.10;;;;;;;1.59;91.00;102637.15;214591;1262;60558;-74
2023/01/25 00:28:50;;;;;;;32.10;19.60;;;;;;;1.57;90.55;102621.24;214561;1265;73705;-73
2023/01/25 00:33:55;;;;;;;44.30;26.40;;;;;;;1.50;90.49;102617.83;214640;1264;72540;-74
2023/01/25 00:38:48;;;;;;;41.80;23.30;;;;;;;1.47;90.38;102617.90;214609;1262;60446;-74
2023/01/25 00:43:42;;;;;;;37.10;22.80;;;;;;;1.46;90.85;102615.59;214640;1264;67087;-74
2023/01/25 00:48:35;;;;;;;31.50;20.40;;;;;;;1.47;90.86;102613.91;214628;1262;60453;-74
2023/01/25 00:53:28;;;;;;;23.30;16.20;;;;;;;1.49;90.85;102615.11;214606;1267;60989;-73
2023/01/25 00:58:21;;;;;;;31.20;19.50;;;;;;;1.46;90.37;102602.91;214482;1266;73450;-73
2023/01/25 01:03:15;;;;;;;31.00;20.20;;;;;;;1.44;90.44;102593.73;214724;1264;60391;-74
2023/01/25 01:08:11;;;;;;;28.30;18.70;;;;;;;1.41;90.06;102593.45;214558;1266;67023;-74
2023/01/25 01:13:04;;;;;;;26.30;17.00;;;;;;;1.37;89.72;102593.45;214446;1264;61106;-74
2023/01/25 01:17:57;;;;;;;23.90;15.90;;;;;;;1.33;89.31;102594.31;214530;1268;60457;-73
2023/01/25 01:22:54;;;;;;;20.60;14.20;;;;;;;1.30;89.45;102590.85;214629;1264;60577;-73
2023/01/25 01:27:46;;;;;;;16.60;13.30;;;;;;;1.30;89.52;102596.11;214540;1264;60903;-73
2023/01/25 01:32:39;;;;;;;16.00;12.30;;;;;;;1.30;89.46;102591.52;214573;1266;60580;-73
2023/01/25 01:37:32;;;;;;;19.20;12.40;;;;;;;1.30;89.32;102591.88;214618;1263;60426;-73
2023/01/25 01:42:25;;;;;;;18.50;13.60;;;;;;;1.28;89.40;102585.34;214621;1264;60547;-73
2023/01/25 01:47:25;;;;;;;15.90;12.70;;;;;;;1.27;88.90;102580.67;214661;1264;73444;-73
2023/01/25 01:52:26;;;;;;;18.40;13.10;;;;;;;1.26;88.90;102578.32;214548;1266;60940;-73
2023/01/25 01:57:24;;;;;;;19.50;14.00;;;;;;;1.24;89.08;102579.52;214614;1264;67114;-73
2023/01/25 02:02:18;;;;;;;18.60;12.40;;;;;;;1.22;88.83;102581.77;214576;1262;61024;-73
2023/01/25 02:07:23;;;;;;;20.60;12.50;;;;;;;1.23;89.04;102576.21;214524;1263;72689;-73
2023/01/25 02:12:18;;;;;;;17.90;12.40;;;;;;;1.21;88.70;102565.48;214525;1266;72758;-73
2023/01/25 02:17:12;;;;;;;22.90;15.40;;;;;;;1.19;88.72;102563.23;214753;1265;61099;-73
2023/01/25 02:22:12;;;;;;;23.10;14.50;;;;;;;1.18;88.64;102558.69;214494;1265;67328;-73
2023/01/25 02:27:06;;;;;;;20.00;14.50;;;;;;;1.16;88.48;102555.81;214561;1265;60998;-73
2023/01/25 02:32:02;;;;;;;15.30;10.80;;;;;;;1.12;88.00;102553.64;214571;1266;60397;-73
2023/01/25 02:36:55;;;;;;;19.50;14.60;;;;;;;1.07;87.51;102546.02;214557;1264;73272;-73
2023/01/25 02:41:48;;;;;;;19.40;14.70;;;;;;;1.05;87.76;102543.30;214711;1264;60585;-73
2023/01/25 02:46:43;;;;;;;19.00;13.40;;;;;;;1.03;87.47;102541.73;214663;1265;65963;-73
2023/01/25 02:51:40;;;;;;;19.40;13.90;;;;;;;1.02;87.42;102540.66;214612;1265;60470;-73
2023/01/25 02:56:34;;;;;;;22.50;15.00;;;;;;;1.00;87.13;102539.40;214575;1264;72578;-73
2023/01/25 03:01:27;;;;;;;20.40;15.00;;;;;;;0.96;87.12;102537.58;214520;1266;70726;-73
2023/01/25 03:06:20;;;;;;;18.60;14.00;;;;;;;0.95;86.94;102538.65;214586;1262;60554;-73
2023/01/25 03:11:13;;;;;;;18.80;13.80;;;;;;;0.92;86.85;102530.23;214495;1263;67246;-73
2023/01/25 03:16:09;;;;;;;17.10;13.30;;;;;;;0.90;86.93;102524.05;214612;1265;60421;-73
2023/01/25 03:21:12;;;;;;;17.10;12.90;;;;;;;0.89;86.70;102512.67;214600;1264;72984;-73
2023/01/25 03:26:17;;;;;;;15.40;12.30;;;;;;;0.85;86.33;102502.29;214560;1266;70585;-73
2023/01/25 03:31:25;;;;;;;18.50;13.00;;;;;;;0.83;86.75;102499.04;214568;1267;60464;-73
2023/01/25 03:36:18;;;;;;;16.20;11.70;;;;;;;0.82;86.45;102495.59;214569;1264;67053;-74
2023/01/25 03:41:12;;;;;;;17.10;10.90;;;;;;;0.81;86.19;102477.58;214537;1266;60590;-73
2023/01/25 03:46:05;;;;;;;14.40;10.20;;;;;;;0.75;85.64;102476.25;214697;1265;72535;-74
2023/01/25 03:51:00;;;;;;;10.80;8.30;;;;;;;0.70;85.94;102476.49;214630;1265;73579;-73
2023/01/25 03:55:55;;;;;;;11.40;8.00;;;;;;;0.67;85.58;102486.75;214532;1264;60545;-73
2023/01/25 04:00:48;;;;;;;9.10;6.40;;;;;;;0.64;85.38;102508.36;214517;1264;67876;-73
2023/01/25 04:05:40;;;;;;;8.20;5.70;;;;;;;0.58;85.12;102491.67;214713;1266;60492;-73
2023/01/25 04:10:34;;;;;;;9.30;5.90;;;;;;;0.51;84.58;102482.03;214739;1263;73821;-74
2023/01/25 04:15:28;;;;;;;7.40;6.00;;;;;;;0.46;84.76;102475.92;214461;1264;168056;-73
2023/01/25 04:20:22;;;;;;;8.80;6.50;;;;;;;0.43;84.59;102468.04;214547;1264;63957;-73
2023/01/25 04:25:15;;;;;;;6.20;4.80;;;;;;;0.39;84.73;102467.86;214455;1264;65459;-73
2023/01/25 04:30:12;;;;;;;6.50;5.20;;;;;;;0.35;84.52;102477.92;214549;1262;60477;-73
2023/01/25 04:35:06;;;;;;;8.20;5.60;;;;;;;0.31;84.47;102479.11;214436;1262;74790;-73
2023/01/25 04:40:00;;;;;;;5.10;4.50;;;;;;;0.30;84.71;102473.78;214500;1265;71171;-73
2023/01/25 04:44:56;;;;;;;6.40;4.70;;;;;;;0.30;84.81;102464.05;214627;1264;60506;-73
2023/01/25 04:49:49;;;;;;;6.80;4.60;;;;;;;0.31;84.66;102457.80;214359;1263;69643;-73
2023/01/25 04:54:44;;;;;;;7.90;5.10;;;;;;;0.29;84.51;102461.39;214479;1267;60409;-73
2023/01/25 04:59:37;;;;;;;5.10;3.90;;;;;;;0.30;84.81;102459.09;214415;1268;60633;-73
2023/01/25 05:04:30;;;;;;;7.20;5.20;;;;;;;0.30;84.89;102450.70;214334;1268;60448;-72
2023/01/25 05:09:23;;;;;;;7.80;5.30;;;;;;;0.31;84.54;102444.13;214493;1262;60588;-73
2023/01/25 05:14:16;;;;;;;7.80;6.20;;;;;;;0.30;84.60;102445.58;214384;1263;60505;-73
2023/01/25 05:19:10;;;;;;;10.50;7.30;;;;;;;0.28;84.64;102444.87;214389;1267;60604;-72
2023/01/25 05:24:21;;;;;;;9.60;6.00;;;;;;;0.25;84.76;102442.80;214551;1264;74188;-73
2023/01/25 05:29:14;;;;;;;7.70;6.10;;;;;;;0.22;84.66;102442.36;214162;1267;60563;-73
2023/01/25 05:34:15;;;;;;;10.60;7.20;;;;;;;0.19;84.87;102439.88;214344;1264;60566;-73
2023/01/25 05:39:08;;;;;;;10.10;7.80;;;;;;;0.16;84.54;102444.73;214317;1263;61056;-73
2023/01/25 05:44:01;;;;;;;12.50;7.50;;;;;;;0.15;84.85;102445.10;214380;1266;60476;-73
2023/01/25 05:48:54;;;;;;;9.40;7.20;;;;;;;0.11;84.31;102448.39;214315;1266;75173;-73
2023/01/25 05:53:49;;;;;;;12.10;8.10;;;;;;;0.08;84.58;102449.84;214227;1264;70907;-73
2023/01/25 05:58:42;;;;;;;9.50;7.90;;;;;;;0.10;84.85;102443.90;214394;1266;60860;-73
2023/01/25 06:03:35;;;;;;;11.90;8.10;;;;;;;0.10;84.70;102441.27;214354;1268;60476;-73
2023/01/25 06:08:30;;;;;;;11.90;8.20;;;;;;;0.09;84.60;102433.49;214521;1266;60476;-73
2023/01/25 06:13:24;;;;;;;12.00;9.30;;;;;;;0.04;84.32;102426.31;214561;1268;72977;-73
2023/01/25 06:18:17;;;;;;;14.80;10.80;;;;;;;0.01;84.38;102420.92;214452;1268;72248;-74
2023/01/25 06:23:30;;;;;;;17.90;11.90;;;;;;;-0.03;84.54;102416.54;214445;1267;60567;-72
2023/01/25 06:28:23;;;;;;;18.50;13.70;;;;;;;-0.04;84.44;102425.13;214467;1264;66573;-73
2023/01/25 06:33:16;;;;;;;21.20;15.70;;;;;;;-0.03;84.74;102433.07;214531;1264;60486;-73
2023/01/25 06:38:09;;;;;;;20.60;15.00;;;;;;;-0.01;84.70;102427.10;214494;1267;60547;-73
2023/01/25 06:43:10;;;;;;;33.90;15.50;;;;;;;-0.04;84.38;102427.80;214486;1267;73483;-72
2023/01/25 06:48:04;;;;;;;23.00;16.70;;;;;;;-0.04;84.91;102426.27;214474;1263;60462;-73
2023/01/25 06:52:56;;;;;;;26.40;17.90;;;;;;;-0.04;84.84;102431.29;214607;1264;65622;-72
2023/01/25 06:57:49;;;;;;;30.90;22.00;;;;;;;-0.06;84.47;102429.05;214428;1264;60467;-72
2023/01/25 07:02:43;;;;;;;30.70;21.20;;;;;;;-0.08;84.39;102421.89;214472;1266;60457;-73
2023/01/25 07:07:36;;;;;;;35.90;23.40;;;;;;;-0.09;84.52;102407.33;214409;1267;73286;-73
2023/01/25 07:12:29;;;;;;;29.30;18.90;;;;;;;-0.07;84.99;102392.80;214334;1263;60470;-72
2023/01/25 07:17:22;;;;;;;33.30;21.90;;;;;;;-0.07;84.81;102386.52;214285;1267;65824;-73
2023/01/25 07:22:16;;;;;;;27.80;18.70;;;;;;;-0.04;84.78;102387.27;214262;1267;60558;-73
2023/01/25 07:27:10;;;;;;;31.70;21.10;;;;;;;-0.02;84.81;102376.73;214342;1267;73755;-72
2023/01/25 07:32:02;;;;;;;33.10;22.70;;;;;;;0.02;84.93;102378.86;214573;1264;71990;-73
2023/01/25 07:36:56;;;;;;;32.10;19.50;;;;;;;0.02;84.63;102380.21;214595;1264;60558;-73
2023/01/25 07:41:48;;;;;;;31.20;20.90;;;;;;;-0.05;84.29;102381.88;214565;1264;60564;-73
2023/01/25 07:46:43;;;;;;;32.20;19.10;;;;;;;-0.06;84.68;102383.52;214570;1264;60558;-72
2023/01/25 07:51:36;;;;;;;29.10;19.60;;;;;;;-0.07;84.55;102388.17;214589;1267;60944;-72
2023/01/25 07:56:35;;;;;;;32.50;21.60;;;;;;;-0.09;84.47;102388.02;214595;1264;60460;-73
2023/01/25 08:01:29;;;;;;;36.90;23.80;;;;;;;-0.12;84.47;102386.08;214562;1264;61267;-73
2023/01/25 08:06:26;;;;;;;42.30;25.10;;;;;;;-0.12;84.65;102385.00;214619;1267;68438;-72
2023/01/25 08:11:26;;;;;;;36.50;21.50;;;;;;;-0.11;84.69;102383.06;214658;1264;60446;-72
2023/01/25 08:16:21;;;;;;;32.50;20.70;;;;;;;-0.14;84.32;102379.10;214547;1263;74799;-72
2023/01/25 08:21:14;;;;;;;34.60;21.40;;;;;;;-0.13;84.34;102374.84;214629;1267;72370;-73
2023/01/25 08:26:09;;;;;;;36.00;22.60;;;;;;;-0.10;84.40;102379.38;214515;1267;60498;-73
2023/01/25 08:31:10;;;;;;;31.20;20.00;;;;;;;-0.09;84.56;102364.99;214502;1264;66604;-73
2023/01/25 08:36:04;;;;;;;30.20;19.70;;;;;;;-0.09;84.29;102366.91;214585;1264;60538;-74
2023/01/25 08:41:08;;;;;;;30.30;20.90;;;;;;;-0.08;84.31;102354.21;214530;1264;73850;-72
2023/01/25 08:46:01;;;;;;;27.50;18.80;;;;;;;-0.04;84.32;102351.14;214589;1264;72560;-73
2023/01/25 08:50:54;;;;;;;26.80;18.00;;;;;;;0.01;84.11;102348.95;214554;1264;60468;-72
2023/01/25 08:55:47;;;;;;;28.30;18.60;;;;;;;0.01;83.71;102351.36;214566;1264;60554;-73
2023/01/25 09:00:41;;;;;;;28.20;18.90;;;;;;;-0.03;83.47;102342.86;214560;1265;60473;-72
2023/01/25 09:05:35;;;;;;;27.80;18.10;;;;;;;0.02;83.93;102344.59;214556;1264;73268;-72
2023/01/25 09:10:28;;;;;;;27.10;17.50;;;;;;;0.07;83.99;102342.33;214581;1264;72145;-73
2023/01/25 09:15:21;;;;;;;26.20;18.00;;;;;;;0.10;83.92;102340.48;214605;1264;60557;-73
2023/01/25 09:20:14;;;;;;;24.60;15.70;;;;;;;0.10;83.50;102332.48;214507;1263;67117;-74
2023/01/25 09:25:08;;;;;;;28.70;19.40;;;;;;;0.05;83.24;102327.79;214618;1263;60460;-74
2023/01/25 09:30:01;;;;;;;26.30;16.40;;;;;;;0.01;83.48;102324.90;214537;1265;73827;-74
2023/01/25 09:34:56;;;;;;;31.50;20.70;;;;;;;0.04;83.79;102326.02;214491;1264;71312;-73
2023/01/25 09:39:48;;;;;;;33.80;20.30;;;;;;;0.09;83.54;102318.65;214664;1264;60385;-73
2023/01/25 09:45:06;;;;;;;27.70;17.90;;;;;;;0.13;83.37;102307.83;214545;1264;60816;-75
2023/01/25 09:50:19;;;;;;;31.50;20.10;;;;;;;0.14;82.81;102299.80;214528;1267;60956;-75
2023/01/25 09:55:16;;;;;;;26.50;18.70;;;;;;;0.12;82.86;102294.79;214624;1264;74675;-75
2023/01/25 10:00:27;;;;;;;30.60;19.30;;;;;;;0.14;82.70;102287.47;214486;1267;72350;-75
2023/01/25 10:05:28;;;;;;;24.70;16.60;;;;;;;0.14;82.75;102288.52;214487;1263;61005;-74
2023/01/25 10:10:33;;;;;;;30.80;19.50;;;;;;;0.16;82.86;102283.94;214586;1263;67292;-74
2023/01/25 10:15:35;;;;;;;21.80;13.00;;;;;;;0.21;82.94;102279.70;214599;1264;60437;-75
2023/01/25 10:20:34;;;;;;;25.80;17.70;;;;;;;0.16;82.42;102264.98;214554;1264;73769;-74
2023/01/25 10:25:45;;;;;;;30.80;19.40;;;;;;;0.15;82.63;102259.26;214601;1264;73410;-74
2023/01/25 10:30:48;;;;;;;31.60;21.00;;;;;;;0.17;82.94;102251.92;214558;1264;60459;-75
2023/01/25 10:35:45;;;;;;;35.20;21.00;;;;;;;0.19;83.06;102246.16;214495;1267;68016;-75
2023/01/25 10:40:44;;;;;;;34.40;21.70;;;;;;;0.22;83.22;102232.73;214577;1263;60343;-75
2023/01/25 10:45:41;;;;;;;33.10;21.90;;;;;;;0.26;82.83;102227.08;214536;1264;73669;-75
2023/01/25 10:50:41;;;;;;;;;;;;;;;0.27;82.82;102222.08;214542;1265;72343;-75
2023/01/25 10:55:34;;;;;;;35.10;23.20;;;;;;;0.29;82.84;102221.59;214478;1264;60541;-74
2023/01/25 11:00:43;;;;;;;26.10;16.10;;;;;;;0.30;83.11;102213.99;214538;1264;60553;-75
2023/01/25 11:05:40;;;;;;;30.80;19.00;;;;;;;0.27;82.51;102214.23;214508;1264;60537;-75
2023/01/25 11:10:35;;;;;;;;;;;;;;;0.19;82.36;102208.46;214598;1264;74469;-74
2023/01/25 11:15:28;;;;;;;35.20;23.00;;;;;;;0.18;82.79;102193.37;214563;1265;72625;-73
2023/01/25 11:20:21;;;;;;;39.60;24.70;;;;;;;0.23;82.54;102189.13;214540;1263;60419;-75
2023/01/25 11:25:30;;;;;;;33.10;21.50;;;;;;;0.21;82.63;102182.15;214578;1264;66270;-75
2023/01/25 11:30:23;;;;;;;34.20;22.40;;;;;;;0.22;82.52;102168.63;214556;1264;60418;-75
2023/01/25 11:35:21;;;;;;;38.70;23.40;;;;;;;0.22;82.25;102160.27;214619;1264;60458;-75
2023/01/25 11:40:47;;;;;;;37.40;25.00;;;;;;;0.24;82.38;102151.21;214613;1264;71136;-74
2023/01/25 11:45:41;;;;;;;39.30;23.80;;;;;;;0.25;82.11;102152.80;214641;1264;60713;-74
2023/01/25 11:50:46;;;;;;;43.00;27.10;;;;;;;0.27;82.38;102151.83;214523;1266;65594;-74
2023/01/25 11:56:13;;;;;;;36.30;23.60;;;;;;;0.31;82.39;102145.27;214522;1264;60461;-75
2023/01/25 12:01:39;;;;;;;42.90;27.10;;;;;;;0.31;82.48;102133.17;214601;1264;72053;-76
2023/01/25 12:07:31;;;;;;;42.20;26.40;;;;;;;0.33;82.31;102123.12;214578;1264;72662;-75
2023/01/25 12:12:36;;;;;;;41.40;26.60;;;;;;;0.31;82.49;102116.13;213810;1270;60530;-75
2023/01/25 12:17:51;;;;;;;47.90;27.70;;;;;;;0.30;82.63;102113.34;213703;1271;65005;-75
2023/01/25 12:23:09;;;;;;;42.90;27.70;;;;;;;0.30;82.80;102111.83;213729;1271;60707;-75
2023/01/25 12:28:23;;;;;;;39.10;23.90;;;;;;;0.30;82.70;102102.80;213679;1271;72645;-75
2023/01/25 12:33:32;;;;;;;40.90;25.60;;;;;;;0.33;82.24;102093.98;213663;1271;70674;-74
2023/01/25 12:38:41;;;;;;;41.60;25.70;;;;;;;0.33;82.24;102083.02;213772;1271;60506;-75
2023/01/25 12:43:47;;;;;;;43.40;26.50;;;;;;;0.35;82.34;102083.55;213730;1271;65982;-75
2023/01/25 12:48:47;;;;;;;42.80;27.40;;;;;;;0.38;82.32;102083.46;214379;1265;60485;-75
2023/01/25 12:53:45;;;;;;;45.10;27.00;;;;;;;0.35;82.30;102077.10;214576;1264;72412;-75
2023/01/25 12:58:48;;;;;;;40.50;26.00;;;;;;;0.34;82.37;102075.09;214518;1264;71485;-75
2023/01/25 13:03:56;;;;;;;42.60;26.20;;;;;;;0.32;82.63;102070.69;214598;1265;60495;-76
2023/01/25 13:09:07;;;;;;;42.70;26.50;;;;;;;0.29;82.57;102067.55;214530;1264;67157;-75
2023/01/25 13:14:19;;;;;;;41.80;25.10;;;;;;;0.29;82.79;102054.25;214523;1264;60418;-75
2023/01/25 13:19:28;;;;;;;33.30;21.30;;;;;;;0.27;82.09;102048.27;214649;1263;74278;-74
2023/01/25 13:24:35;;;;;;;37.20;22.90;;;;;;;0.26;82.30;102044.09;214605;1264;72719;-75
2023/01/25 13:29:34;;;;;;;42.50;24.60;;;;;;;0.26;82.11;102044.46;214581;1264;60472;-74
2023/01/25 13:34:37;;;;;;;34.20;22.40;;;;;;;0.29;82.26;102044.67;214633;1265;67733;-74
2023/01/25 13:39:31;;;;;;;38.30;22.00;;;;;;;0.31;82.43;102033.23;214632;1264;60495;-75
2023/01/25 13:44:27;;;;;;;36.40;21.70;;;;;;;0.32;82.20;102024.97;214581;1264;72501;-74
2023/01/25 13:49:27;;;;;;;38.10;22.80;;;;;;;0.26;82.11;102027.02;214543;1264;71636;-75
2023/01/25 13:54:20;;;;;;;38.30;22.60;;;;;;;0.19;82.49;102017.23;214564;1264;68901;-74
2023/01/25 13:59:27;;;;;;;35.80;21.80;;;;;;;0.16;82.55;102013.93;214505;1264;61098;-74
2023/01/25 14:04:20;;;;;;;39.20;24.20;;;;;;;0.13;82.58;102009.65;214567;1263;60541;-75
2023/01/25 14:09:18;;;;;;;35.50;21.60;;;;;;;0.11;82.59;102006.03;214577;1267;73582;-75
2023/01/25 14:14:25;;;;;;;37.20;22.90;;;;;;;0.07;82.63;101997.35;214501;1263;71386;-75
2023/01/25 14:19:27;;;;;;;40.30;23.60;;;;;;;0.00;82.46;101992.58;214640;1263;60470;-75
2023/01/25 14:24:20;;;;;;;43.40;24.90;;;;;;;-0.01;82.47;101990.64;214594;1266;68057;-75
2023/01/25 14:29:20;;;;;;;40.50;24.30;;;;;;;0.00;82.92;101986.27;214515;1264;60465;-75
2023/01/25 14:34:26;;;;;;;42.30;25.20;;;;;;;-0.02;82.93;101972.65;214549;1264;71667;-75
2023/01/25 14:39:29;;;;;;;38.40;23.50;;;;;;;-0.04;82.97;101968.41;214572;1264;71162;-74
2023/01/25 14:44:22;;;;;;;45.10;25.40;;;;;;;-0.08;83.01;101960.96;214554;1263;60629;-75
2023/01/25 14:49:25;;;;;;;46.90;26.70;;;;;;;-0.10;83.02;101958.54;214525;1264;67165;-75
2023/01/25 14:54:44;;;;;;;43.50;23.60;;;;;;;-0.12;82.80;101947.63;214590;1265;60499;-74
2023/01/25 14:59:39;;;;;;;40.60;22.30;;;;;;;-0.17;82.90;101943.70;214561;1264;73588;-73
2023/01/25 15:04:32;;;;;;;42.50;23.90;;;;;;;-0.17;83.19;101939.20;214550;1264;73558;-74
2023/01/25 15:09:42;;;;;;;47.90;25.80;;;;;;;-0.17;83.07;101932.39;214560;1264;60586;-74
2023/01/25 15:14:47;;;;;;;;;;;;;;;-0.18;83.12;101926.73;214594;1264;67220;-74
2023/01/25 15:19:52;;;;;;;47.00;26.10;;;;;;;-0.16;83.52;101918.65;214619;1264;60467;-75
2023/01/25 15:24:45;;;;;;;48.60;26.30;;;;;;;-0.17;83.28;101913.37;214696;1264;73833;-75
2023/01/25 15:29:49;;;;;;;42.10;25.60;;;;;;;-0.16;83.40;101911.06;214606;1264;73772;-74
2023/01/25 15:34:42;;;;;;;45.00;26.50;;;;;;;-0.20;83.25;101904.95;214535;1264;62038;-74
2023/01/25 15:39:35;;;;;;;45.20;25.40;;;;;;;-0.23;83.33;101900.79;214608;1263;60444;-74
2023/01/25 15:44:28;;;;;;;38.30;21.50;;;;;;;-0.22;83.46;101899.14;214547;1263;60451;-75
2023/01/25 15:49:27;;;;;;;41.70;25.20;;;;;;;-0.22;83.53;101895.41;214576;1262;60570;-74
2023/01/25 15:54:20;;;;;;;46.40;25.80;;;;;;;-0.21;83.53;101890.40;214479;1264;72828;-74
2023/01/25 15:59:17;;;;;;;36.40;23.70;;;;;;;-0.18;83.52;101882.24;214494;1264;60464;-74
2023/01/25 16:04:12;;;;;;;35.20;20.10;;;;;;;-0.18;83.52;101875.09;214540;1264;67000;-74
2023/01/25 16:09:25;;;;;;;43.30;25.40;;;;;;;-0.17;83.80;101871.90;214535;1265;60458;-74
2023/01/25 16:14:19;;;;;;;47.20;27.20;;;;;;;-0.19;83.64;101866.85;214585;1264;72742;-74
2023/01/25 16:19:14;;;;;;;46.90;27.30;;;;;;;-0.18;83.67;101866.86;214389;1264;141022;-74
2023/01/25 16:24:07;;;;;;;49.90;29.70;;;;;;;-0.17;83.73;101861.16;214389;1265;60555;-74
2023/01/25 16:29:00;;;;;;;47.70;26.60;;;;;;;-0.17;83.76;101854.57;214555;1263;67276;-75
2023/01/25 16:33:53;;;;;;;48.10;27.90;;;;;;;-0.18;83.83;101854.15;214615;1264;60470;-74
2023/01/25 16:38:46;;;;;;;46.50;25.30;;;;;;;-0.19;83.69;101847.19;214572;1265;60585;-74
2023/01/25 16:43:48;;;;;;;48.70;27.60;;;;;;;-0.20;83.97;101839.30;214503;1264;61004;-75
2023/01/25 16:48:41;;;;;;;49.40;28.20;;;;;;;-0.19;84.11;101829.67;214619;1264;60538;-74
2023/01/25 16:53:33;;;;;;;45.50;26.90;;;;;;;-0.17;84.25;101826.93;214528;1265;60477;-74
2023/01/25 16:58:26;;;;;;;48.30;27.60;;;;;;;-0.19;83.95;101822.53;214524;1266;60564;-75
2023/01/25 17:03:19;;;;;;;48.00;27.50;;;;;;;-0.19;84.00;101816.69;214591;1266;60979;-74
2023/01/25 17:08:12;;;;;;;47.30;26.10;;;;;;;-0.19;83.75;101812.78;214510;1263;60650;-74
2023/01/25 17:13:07;;;;;;;48.10;28.70;;;;;;;-0.22;83.74;101802.69;214640;1264;60475;-74
2023/01/25 17:18:00;;;;;;;53.80;32.20;;;;;;;-0.22;84.13;101796.09;214668;1264;67134;-74
2023/01/25 17:22:53;;;;;;;55.40;31.20;;;;;;;-0.20;84.08;101795.69;214614;1264;60544;-74
2023/01/25 17:27:46;;;;;;;49.80;29.10;;;;;;;-0.19;84.15;101791.86;214671;1264;60675;-74
2023/01/25 17:32:39;;;;;;;45.40;27.50;;;;;;;-0.19;83.97;101787.63;214551;1264;60444;-74
2023/01/25 17:37:33;;;;;;;53.50;27.60;;;;;;;-0.19;83.88;101787.39;214521;1264;60437;-75
2023/01/25 17:42:26;;;;;;;49.40;28.80;;;;;;;-0.16;84.40;101769.73;214552;1264;65783;-74
2023/01/25 17:47:19;;;;;;;50.50;29.60;;;;;;;-0.15;84.40;101768.34;214562;1264;60453;-74
2023/01/25 17:52:11;;;;;;;51.00;30.40;;;;;;;-0.15;84.33;101766.55;214555;1265;60474;-74
2023/01/25 17:57:04;;;;;;;47.20;27.60;;;;;;;-0.14;84.46;101763.79;214474;1267;60535;-75
2023/01/25 18:01:57;;;;;;;46.10;26.70;;;;;;;-0.13;84.43;101753.31;214541;1264;60497;-74
2023/01/25 18:06:50;;;;;;;44.40;27.70;;;;;;;-0.14;84.19;101752.66;214610;1264;60680;-74
2023/01/25 18:11:43;;;;;;;47.50;26.60;;;;;;;-0.15;84.21;101747.49;214539;1266;60502;-74
2023/01/25 18:16:39;;;;;;;42.00;25.40;;;;;;;-0.15;84.38;101750.92;214531;1263;60487;-74
2023/01/25 18:21:33;;;;;;;44.40;27.10;;;;;;;-0.13;84.21;101748.82;214571;1264;71412;-74
2023/01/25 18:26:33;;;;;;;44.00;26.70;;;;;;;-0.13;84.22;101756.48;214596;1265;60445;-74
2023/01/25 18:31:26;;;;;;;43.40;25.80;;;;;;;-0.12;84.53;101751.14;214533;1266;65944;-74
2023/01/25 18:36:19;;;;;;;43.10;27.10;;;;;;;-0.11;84.52;101748.51;214586;1264;60474;-74
2023/01/25 18:41:12;;;;;;;46.50;27.90;;;;;;;-0.11;84.34;101745.77;214532;1264;74977;-75
2023/01/25 18:46:05;;;;;;;42.00;26.50;;;;;;;-0.10;84.25;101746.03;214324;1264;71630;-75
2023/01/25 18:51:13;;;;;;;41.80;26.00;;;;;;;-0.10;84.36;101750.44;214310;1265;61126;-74
2023/01/25 18:56:10;;;;;;;42.80;26.20;;;;;;;-0.09;84.46;101751.39;214346;1265;65987;-74
2023/01/25 19:01:13;;;;;;;38.30;24.20;;;;;;;-0.10;84.48;101745.73;214405;1264;60588;-74
2023/01/25 19:06:07;;;;;;;44.70;27.40;;;;;;;-0.09;84.54;101739.10;214338;1264;73594;-73
2023/01/25 19:11:05;;;;;;;42.00;25.50;;;;;;;-0.08;84.41;101734.92;214342;1264;73563;-73
2023/01/25 19:16:05;;;;;;;40.60;26.10;;;;;;;-0.10;84.46;101725.38;214388;1267;61613;-73
2023/01/25 19:20:58;;;;;;;49.30;28.00;;;;;;;-0.12;84.76;101716.92;214303;1266;66865;-73
2023/01/25 19:25:55;;;;;;;47.40;27.20;;;;;;;-0.09;84.69;101710.11;214302;1264;60461;-74
2023/01/25 19:30:48;;;;;;;43.30;26.50;;;;;;;-0.09;84.61;101709.30;214397;1265;73599;-74
2023/01/25 19:35:41;;;;;;;44.70;26.90;;;;;;;-0.09;84.59;101708.29;214366;1267;72601;-74
2023/01/25 19:40:34;;;;;;;44.90;27.90;;;;;;;-0.07;84.53;101704.50;214360;1264;60569;-74
2023/01/25 19:45:27;;;;;;;43.70;26.60;;;;;;;-0.08;84.66;101690.96;214377;1264;66973;-74
2023/01/25 19:50:20;;;;;;;45.70;26.60;;;;;;;-0.07;84.43;101682.30;214415;1264;60541;-74
2023/01/25 19:55:13;;;;;;;45.60;27.00;;;;;;;-0.10;84.71;101671.58;214390;1264;60453;-74
2023/01/25 20:00:07;;;;;;;49.60;26.90;;;;;;;-0.08;84.68;101674.39;214301;1268;60910;-74
2023/01/25 20:05:00;;;;;;;44.10;27.30;;;;;;;-0.06;84.75;101668.91;214478;1265;60462;-74
2023/01/25 20:09:53;;;;;;;40.10;23.70;;;;;;;-0.04;84.88;101666.52;214520;1264;60500;-73
2023/01/25 20:14:46;;;;;;;50.30;27.60;;;;;;;-0.07;84.50;101662.41;214428;1264;60650;-73
2023/01/25 20:19:39;;;;;;;50.60;29.40;;;;;;;-0.09;84.53;101647.77;214438;1266;73896;-73
2023/01/25 20:24:32;;;;;;;52.30;30.50;;;;;;;-0.08;84.72;101640.52;214516;1265;60477;-73
2023/01/25 20:29:27;;;;;;;51.50;30.70;;;;;;;-0.07;84.61;101641.62;214433;1264;60483;-73
2023/01/25 20:34:23;;;;;;;53.60;31.00;;;;;;;-0.08;84.61;101630.44;214515;1265;64823;-74
2023/01/25 20:39:19;;;;;;;51.20;30.60;;;;;;;-0.09;85.00;101628.36;214452;1264;61251;-73
2023/01/25 20:44:14;;;;;;;49.80;29.70;;;;;;;-0.08;84.93;101629.10;214416;1265;75770;-74
2023/01/25 20:49:14;;;;;;;56.60;32.10;;;;;;;-0.10;85.04;101623.49;214514;1265;71066;-74
2023/01/25 20:54:07;;;;;;;50.40;33.00;;;;;;;-0.10;84.90;101622.30;214468;1264;60496;-74
2023/01/25 20:59:00;;;;;;;44.90;29.10;;;;;;;-0.11;84.83;101625.98;214545;1265;60473;-73
2023/01/25 21:03:55;;;;;;;52.30;31.90;;;;;;;-0.10;85.00;101624.29;214542;1264;60467;-74
2023/01/25 21:08:48;;;;;;;44.50;27.20;;;;;;;-0.10;85.00;101617.30;214430;1265;72652;-73
2023/01/25 21:13:42;;;;;;;52.20;30.70;;;;;;;-0.11;84.87;101610.59;214370;1265;70675;-74
2023/01/25 21:18:39;;;;;;;49.60;29.20;;;;;;;-0.11;84.97;101606.38;214374;1263;61309;-74
2023/01/25 21:23:34;;;;;;;46.00;25.80;;;;;;;-0.10;85.18;101617.02;214406;1265;65801;-74
2023/01/25 21:28:27;;;;;;;47.20;28.10;;;;;;;-0.09;85.04;101610.23;214513;1264;60773;-74
2023/01/25 21:33:20;;;;;;;43.90;27.80;;;;;;;-0.08;85.23;101606.79;214565;1264;72416;-74
2023/01/25 21:38:14;;;;;;;47.60;29.80;;;;;;;-0.07;85.22;101598.48;214441;1264;60465;-74
2023/01/25 21:43:06;;;;;;;48.00;28.70;;;;;;;-0.07;85.14;101593.55;214484;1268;60395;-74
2023/01/25 21:48:00;;;;;;;50.60;29.40;;;;;;;-0.05;85.43;101589.93;214369;1264;60499;-74
2023/01/25 21:52:53;;;;;;;45.30;27.00;;;;;;;-0.05;85.22;101590.98;214368;1268;60518;-74
2023/01/25 21:57:46;;;;;;;48.00;29.50;;;;;;;-0.06;85.34;101593.76;214474;1264;60583;-74
2023/01/25 22:02:39;;;;;;;50.30;31.50;;;;;;;-0.05;85.28;101593.69;214374;1267;63900;-74
2023/01/25 22:07:32;;;;;;;54.00;32.80;;;;;;;-0.03;85.28;101599.29;214305;1264;60576;-73
2023/01/25 22:12:25;;;;;;;43.30;26.90;;;;;;;-0.02;85.30;101600.40;214388;1265;65994;-74
2023/01/25 22:17:21;;;;;;;49.50;28.70;;;;;;;-0.04;85.11;101597.52;214522;1265;60909;-74
2023/01/25 22:22:14;;;;;;;45.40;28.40;;;;;;;-0.05;85.22;101589.25;214565;1266;76253;-73
2023/01/25 22:27:17;;;;;;;51.10;31.50;;;;;;;-0.03;85.19;101585.48;214371;1264;60631;-74